sensor_id;sensor_type;location;lat;lon;timestamp;temperature;humidity
59961;DHT22;55902;-37.980;-63.602;2023-07-02T00:01:13;11.60;99.90
59961;DHT22;55902;-37.980;-63.602;2023-07-02T00:03:40;11.60;99.90
59961;DHT22;55902;-37.980;-63.602;2023-07-02T00:06:07;11.60;99.90
59961;DHT22;55902;-37.980;-63.602;2023-07-02T00:08:34;11.60;99.90
59961;DHT22;55902;-37.980;-63.602;2023-07-02T00:11:01;11.60;99.90
59961;DHT22;55902;-37.980;-63.602;2023-07-02T00:13:28;11.60;99.90
59961;DHT22;55902;-37.980;-63.602;2023-07-02T00:15:55;11.60;99.90
59961;DHT22;55902;-37.980;-63.602;2023-07-02T00:18:22;11.60;99.90
59961;DHT22;55902;-37.980;-63.602;2023-07-02T00:20:49;11.60;99.90
59961;DHT22;55902;-37.980;-63.602;2023-07-02T00:23:16;11.60;99.90
59961;DHT22;55902;-37.980;-63.602;2023-07-02T00:32:28;11.70;99.90
59961;DHT22;55902;-37.980;-63.602;2023-07-02T00:34:56;11.80;99.60
59961;DHT22;55902;-37.980;-63.602;2023-07-02T00:37:23;11.90;99.50
59961;DHT22;55902;-37.980;-63.602;2023-07-02T00:39:51;11.90;99.30
59961;DHT22;55902;-37.980;-63.602;2023-07-02T00:42:18;12.00;99.10
59961;DHT22;55902;-37.980;-63.602;2023-07-02T00:44:47;12.00;99.10
59961;DHT22;55902;-37.980;-63.602;2023-07-02T00:47:14;12.00;99.00
59961;DHT22;55902;-37.980;-63.602;2023-07-02T00:49:42;12.10;99.00
59961;DHT22;55902;-37.980;-63.602;2023-07-02T00:52:10;12.00;99.00
59961;DHT22;55902;-37.980;-63.602;2023-07-02T00:54:38;12.00;99.10
59961;DHT22;55902;-37.980;-63.602;2023-07-02T00:57:06;11.90;99.10
59961;DHT22;55902;-37.980;-63.602;2023-07-02T00:59:34;11.90;99.20
59961;DHT22;55902;-37.980;-63.602;2023-07-02T01:02:04;11.90;99.40
59961;DHT22;55902;-37.980;-63.602;2023-07-02T01:04:32;11.80;99.50
59961;DHT22;55902;-37.980;-63.602;2023-07-02T01:07:00;11.80;99.60
59961;DHT22;55902;-37.980;-63.602;2023-07-02T01:09:27;11.70;99.60
59961;DHT22;55902;-37.980;-63.602;2023-07-02T01:11:57;11.70;99.70
59961;DHT22;55902;-37.980;-63.602;2023-07-02T01:14:40;11.70;99.80
59961;DHT22;55902;-37.980;-63.602;2023-07-02T01:17:08;11.60;99.90
59961;DHT22;55902;-37.980;-63.602;2023-07-02T01:22:10;11.50;99.90
59961;DHT22;55902;-37.980;-63.602;2023-07-02T01:24:39;11.60;99.90
59961;DHT22;55902;-37.980;-63.602;2023-07-02T01:27:07;11.50;99.90
59961;DHT22;55902;-37.980;-63.602;2023-07-02T01:29:36;11.50;99.90
59961;DHT22;55902;-37.980;-63.602;2023-07-02T01:32:04;11.50;99.90
59961;DHT22;55902;-37.980;-63.602;2023-07-02T01:34:31;11.50;99.90
59961;DHT22;55902;-37.980;-63.602;2023-07-02T01:37:02;11.50;99.90
59961;DHT22;55902;-37.980;-63.602;2023-07-02T01:39:30;11.50;99.90
59961;DHT22;55902;-37.980;-63.602;2023-07-02T01:42:09;11.50;99.90
59961;DHT22;55902;-37.980;-63.602;2023-07-02T01:44:36;11.50;99.90
59961;DHT22;55902;-37.980;-63.602;2023-07-02T01:47:06;11.60;99.90
59961;DHT22;55902;-37.980;-63.602;2023-07-02T01:49:34;11.70;99.80
59961;DHT22;55902;-37.980;-63.602;2023-07-02T01:52:02;11.70;99.70
59961;DHT22;55902;-37.980;-63.602;2023-07-02T01:54:31;11.80;99.50
59961;DHT22;55902;-37.980;-63.602;2023-07-02T01:56:58;11.80;99.50
59961;DHT22;55902;-37.980;-63.602;2023-07-02T01:59:26;11.90;99.40
59961;DHT22;55902;-37.980;-63.602;2023-07-02T02:01:53;11.90;99.10
59961;DHT22;55902;-37.980;-63.602;2023-07-02T02:04:19;12.00;99.10
59961;DHT22;55902;-37.980;-63.602;2023-07-02T02:06:46;12.00;98.90
59961;DHT22;55902;-37.980;-63.602;2023-07-02T02:09:13;12.00;98.70
59961;DHT22;55902;-37.980;-63.602;2023-07-02T02:11:49;12.00;98.70
59961;DHT22;55902;-37.980;-63.602;2023-07-02T02:14:16;12.10;98.70
59961;DHT22;55902;-37.980;-63.602;2023-07-02T02:16:44;12.00;98.70
59961;DHT22;55902;-37.980;-63.602;2023-07-02T02:19:14;12.00;98.70
59961;DHT22;55902;-37.980;-63.602;2023-07-02T02:21:44;12.00;98.60
59961;DHT22;55902;-37.980;-63.602;2023-07-02T02:24:11;12.00;98.40
59961;DHT22;55902;-37.980;-63.602;2023-07-02T02:26:38;12.00;98.70
59961;DHT22;55902;-37.980;-63.602;2023-07-02T02:29:05;12.00;98.20
59961;DHT22;55902;-37.980;-63.602;2023-07-02T02:31:32;12.00;98.20
59961;DHT22;55902;-37.980;-63.602;2023-07-02T02:33:59;12.00;98.20
59961;DHT22;55902;-37.980;-63.602;2023-07-02T02:36:26;11.90;98.20
59961;DHT22;55902;-37.980;-63.602;2023-07-02T02:38:53;11.90;98.20
59961;DHT22;55902;-37.980;-63.602;2023-07-02T02:41:20;11.90;98.30
59961;DHT22;55902;-37.980;-63.602;2023-07-02T02:43:47;11.80;98.20
59961;DHT22;55902;-37.980;-63.602;2023-07-02T02:46:20;11.80;98.30
59961;DHT22;55902;-37.980;-63.602;2023-07-02T02:48:50;11.80;98.40
59961;DHT22;55902;-37.980;-63.602;2023-07-02T02:51:18;11.80;98.40
59961;DHT22;55902;-37.980;-63.602;2023-07-02T02:53:45;11.80;98.40
59961;DHT22;55902;-37.980;-63.602;2023-07-02T02:56:12;11.80;98.40
59961;DHT22;55902;-37.980;-63.602;2023-07-02T03:02:01;11.70;98.70
59961;DHT22;55902;-37.980;-63.602;2023-07-02T03:04:27;11.60;98.90
59961;DHT22;55902;-37.980;-63.602;2023-07-02T03:06:54;11.60;99.00
59961;DHT22;55902;-37.980;-63.602;2023-07-02T03:13:05;11.50;99.20
59961;DHT22;55902;-37.980;-63.602;2023-07-02T03:15:32;11.50;99.40
59961;DHT22;55902;-37.980;-63.602;2023-07-02T03:17:59;11.50;99.50
59961;DHT22;55902;-37.980;-63.602;2023-07-02T03:20:26;11.40;99.60
59961;DHT22;55902;-37.980;-63.602;2023-07-02T03:22:53;11.40;99.70
59961;DHT22;55902;-37.980;-63.602;2023-07-02T03:25:20;11.40;99.80
59961;DHT22;55902;-37.980;-63.602;2023-07-02T03:27:47;11.30;99.90
59961;DHT22;55902;-37.980;-63.602;2023-07-02T03:30:14;11.30;99.90
59961;DHT22;55902;-37.980;-63.602;2023-07-02T03:32:41;11.20;99.90
59961;DHT22;55902;-37.980;-63.602;2023-07-02T03:35:08;11.20;99.90
59961;DHT22;55902;-37.980;-63.602;2023-07-02T03:37:35;11.20;99.90
59961;DHT22;55902;-37.980;-63.602;2023-07-02T03:40:02;11.10;99.90
59961;DHT22;55902;-37.980;-63.602;2023-07-02T03:42:30;11.10;99.90
59961;DHT22;55902;-37.980;-63.602;2023-07-02T03:44:57;11.10;99.90
59961;DHT22;55902;-37.980;-63.602;2023-07-02T03:47:24;11.00;99.90
59961;DHT22;55902;-37.980;-63.602;2023-07-02T03:49:51;11.00;99.90
59961;DHT22;55902;-37.980;-63.602;2023-07-02T04:02:24;10.80;99.90
59961;DHT22;55902;-37.980;-63.602;2023-07-02T04:04:51;10.80;99.90
59961;DHT22;55902;-37.980;-63.602;2023-07-02T04:07:18;10.80;99.90
59961;DHT22;55902;-37.980;-63.602;2023-07-02T04:09:45;10.80;99.90
59961;DHT22;55902;-37.980;-63.602;2023-07-02T04:12:12;10.80;99.90
59961;DHT22;55902;-37.980;-63.602;2023-07-02T04:14:39;10.80;99.90
59961;DHT22;55902;-37.980;-63.602;2023-07-02T04:17:06;10.80;99.90
59961;DHT22;55902;-37.980;-63.602;2023-07-02T04:19:33;10.70;99.90
59961;DHT22;55902;-37.980;-63.602;2023-07-02T04:22:02;10.70;99.90
59961;DHT22;55902;-37.980;-63.602;2023-07-02T04:24:29;10.70;99.90
59961;DHT22;55902;-37.980;-63.602;2023-07-02T04:26:56;10.70;99.90
59961;DHT22;55902;-37.980;-63.602;2023-07-02T04:29:23;10.60;99.90
59961;DHT22;55902;-37.980;-63.602;2023-07-02T04:31:50;10.50;99.90
59961;DHT22;55902;-37.980;-63.602;2023-07-02T04:34:17;10.50;99.90
59961;DHT22;55902;-37.980;-63.602;2023-07-02T04:36:48;10.40;99.90
59961;DHT22;55902;-37.980;-63.602;2023-07-02T04:39:15;10.40;99.90
59961;DHT22;55902;-37.980;-63.602;2023-07-02T04:41:42;10.40;99.90
59961;DHT22;55902;-37.980;-63.602;2023-07-02T04:44:09;10.40;99.90
59961;DHT22;55902;-37.980;-63.602;2023-07-02T04:46:36;10.40;99.90
59961;DHT22;55902;-37.980;-63.602;2023-07-02T04:49:04;10.40;99.90
59961;DHT22;55902;-37.980;-63.602;2023-07-02T04:51:31;10.30;99.90
59961;DHT22;55902;-37.980;-63.602;2023-07-02T04:53:58;10.30;99.90
59961;DHT22;55902;-37.980;-63.602;2023-07-02T04:56:25;10.40;99.90
59961;DHT22;55902;-37.980;-63.602;2023-07-02T04:58:53;10.40;99.90
59961;DHT22;55902;-37.980;-63.602;2023-07-02T05:01:20;10.40;99.90
59961;DHT22;55902;-37.980;-63.602;2023-07-02T05:03:47;10.40;99.90
59961;DHT22;55902;-37.980;-63.602;2023-07-02T05:06:14;10.40;99.90
59961;DHT22;55902;-37.980;-63.602;2023-07-02T05:08:40;10.40;99.90
59961;DHT22;55902;-37.980;-63.602;2023-07-02T05:11:07;10.40;99.90
59961;DHT22;55902;-37.980;-63.602;2023-07-02T05:13:35;10.50;99.90
59961;DHT22;55902;-37.980;-63.602;2023-07-02T05:16:02;10.60;99.90
59961;DHT22;55902;-37.980;-63.602;2023-07-02T05:18:29;10.60;99.90
59961;DHT22;55902;-37.980;-63.602;2023-07-02T05:20:56;10.50;99.90
59961;DHT22;55902;-37.980;-63.602;2023-07-02T05:23:23;10.50;99.90
59961;DHT22;55902;-37.980;-63.602;2023-07-02T05:25:50;10.50;99.90
59961;DHT22;55902;-37.980;-63.602;2023-07-02T05:28:17;10.50;99.90
59961;DHT22;55902;-37.980;-63.602;2023-07-02T05:30:44;10.50;99.90
59961;DHT22;55902;-37.980;-63.602;2023-07-02T05:33:11;10.50;99.90
59961;DHT22;55902;-37.980;-63.602;2023-07-02T05:35:38;10.50;99.90
59961;DHT22;55902;-37.980;-63.602;2023-07-02T05:38:05;10.50;99.90
59961;DHT22;55902;-37.980;-63.602;2023-07-02T05:40:32;10.40;99.90
59961;DHT22;55902;-37.980;-63.602;2023-07-02T05:43:02;10.40;99.90
59961;DHT22;55902;-37.980;-63.602;2023-07-02T05:45:29;10.40;99.90
59961;DHT22;55902;-37.980;-63.602;2023-07-02T05:47:56;10.40;99.90
59961;DHT22;55902;-37.980;-63.602;2023-07-02T05:50:23;10.30;99.90
59961;DHT22;55902;-37.980;-63.602;2023-07-02T05:52:51;10.20;99.90
59961;DHT22;55902;-37.980;-63.602;2023-07-02T05:55:18;10.20;99.90
59961;DHT22;55902;-37.980;-63.602;2023-07-02T05:57:45;10.20;99.90
59961;DHT22;55902;-37.980;-63.602;2023-07-02T06:00:12;10.30;99.90
59961;DHT22;55902;-37.980;-63.602;2023-07-02T06:02:39;10.30;99.90
59961;DHT22;55902;-37.980;-63.602;2023-07-02T06:05:07;10.40;99.90
59961;DHT22;55902;-37.980;-63.602;2023-07-02T06:07:34;10.40;99.90
59961;DHT22;55902;-37.980;-63.602;2023-07-02T06:10:01;10.40;99.90
59961;DHT22;55902;-37.980;-63.602;2023-07-02T06:12:28;10.40;99.90
59961;DHT22;55902;-37.980;-63.602;2023-07-02T06:25:00;10.30;99.90
59961;DHT22;55902;-37.980;-63.602;2023-07-02T06:27:27;10.20;99.90
59961;DHT22;55902;-37.980;-63.602;2023-07-02T06:29:54;10.10;99.90
59961;DHT22;55902;-37.980;-63.602;2023-07-02T06:32:21;10.10;99.90
59961;DHT22;55902;-37.980;-63.602;2023-07-02T06:34:48;10.20;99.90
59961;DHT22;55902;-37.980;-63.602;2023-07-02T06:37:15;10.10;99.90
59961;DHT22;55902;-37.980;-63.602;2023-07-02T06:39:42;10.10;99.90
59961;DHT22;55902;-37.980;-63.602;2023-07-02T06:42:09;10.10;99.90
59961;DHT22;55902;-37.980;-63.602;2023-07-02T06:44:36;10.00;99.90
59961;DHT22;55902;-37.980;-63.602;2023-07-02T06:47:03;10.10;99.90
59961;DHT22;55902;-37.980;-63.602;2023-07-02T06:49:30;10.10;99.90
59961;DHT22;55902;-37.980;-63.602;2023-07-02T06:51:57;10.00;99.90
59961;DHT22;55902;-37.980;-63.602;2023-07-02T06:54:26;10.00;99.90
59961;DHT22;55902;-37.980;-63.602;2023-07-02T06:56:53;10.10;99.90
59961;DHT22;55902;-37.980;-63.602;2023-07-02T06:59:21;10.10;99.90
59961;DHT22;55902;-37.980;-63.602;2023-07-02T07:01:49;10.10;99.90
59961;DHT22;55902;-37.980;-63.602;2023-07-02T07:04:16;10.20;99.90
59961;DHT22;55902;-37.980;-63.602;2023-07-02T07:06:43;10.20;99.90
59961;DHT22;55902;-37.980;-63.602;2023-07-02T07:09:10;10.20;99.90
59961;DHT22;55902;-37.980;-63.602;2023-07-02T07:11:37;10.20;99.90
59961;DHT22;55902;-37.980;-63.602;2023-07-02T07:14:04;10.20;99.90
59961;DHT22;55902;-37.980;-63.602;2023-07-02T07:16:31;10.20;99.90
59961;DHT22;55902;-37.980;-63.602;2023-07-02T07:18:58;10.30;99.90
59961;DHT22;55902;-37.980;-63.602;2023-07-02T07:21:25;10.30;99.90
59961;DHT22;55902;-37.980;-63.602;2023-07-02T07:23:52;10.40;99.90
59961;DHT22;55902;-37.980;-63.602;2023-07-02T07:26:19;10.40;99.90
59961;DHT22;55902;-37.980;-63.602;2023-07-02T07:28:46;10.40;99.90
59961;DHT22;55902;-37.980;-63.602;2023-07-02T07:31:13;10.40;99.90
59961;DHT22;55902;-37.980;-63.602;2023-07-02T07:33:40;10.40;99.90
59961;DHT22;55902;-37.980;-63.602;2023-07-02T07:36:07;10.40;99.90
59961;DHT22;55902;-37.980;-63.602;2023-07-02T07:38:34;10.40;99.90
59961;DHT22;55902;-37.980;-63.602;2023-07-02T07:41:01;10.50;99.90
59961;DHT22;55902;-37.980;-63.602;2023-07-02T07:43:28;10.50;99.90
59961;DHT22;55902;-37.980;-63.602;2023-07-02T07:45:55;10.60;99.90
59961;DHT22;55902;-37.980;-63.602;2023-07-02T07:48:22;10.60;99.90
59961;DHT22;55902;-37.980;-63.602;2023-07-02T07:50:49;10.60;99.90
59961;DHT22;55902;-37.980;-63.602;2023-07-02T07:53:16;10.60;99.90
59961;DHT22;55902;-37.980;-63.602;2023-07-02T07:55:43;10.60;99.90
59961;DHT22;55902;-37.980;-63.602;2023-07-02T07:58:10;10.60;99.90
59961;DHT22;55902;-37.980;-63.602;2023-07-02T08:00:37;10.60;99.90
59961;DHT22;55902;-37.980;-63.602;2023-07-02T08:03:04;10.60;99.90
59961;DHT22;55902;-37.980;-63.602;2023-07-02T08:05:31;10.60;99.90
59961;DHT22;55902;-37.980;-63.602;2023-07-02T08:07:58;10.60;99.90
59961;DHT22;55902;-37.980;-63.602;2023-07-02T08:10:25;10.70;99.90
59961;DHT22;55902;-37.980;-63.602;2023-07-02T08:12:54;10.70;99.90
59961;DHT22;55902;-37.980;-63.602;2023-07-02T08:15:21;10.70;99.90
59961;DHT22;55902;-37.980;-63.602;2023-07-02T08:17:48;10.80;99.90
59961;DHT22;55902;-37.980;-63.602;2023-07-02T08:20:17;10.90;99.90
59961;DHT22;55902;-37.980;-63.602;2023-07-02T08:22:45;11.00;99.90
59961;DHT22;55902;-37.980;-63.602;2023-07-02T08:25:12;11.10;99.90
59961;DHT22;55902;-37.980;-63.602;2023-07-02T08:27:39;11.20;99.90
59961;DHT22;55902;-37.980;-63.602;2023-07-02T08:30:06;11.40;99.90
59961;DHT22;55902;-37.980;-63.602;2023-07-02T08:32:33;11.60;99.90
59961;DHT22;55902;-37.980;-63.602;2023-07-02T08:35:00;11.60;99.90
59961;DHT22;55902;-37.980;-63.602;2023-07-02T08:37:27;11.80;99.90
59961;DHT22;55902;-37.980;-63.602;2023-07-02T08:39:54;11.80;99.90
59961;DHT22;55902;-37.980;-63.602;2023-07-02T08:42:21;11.90;99.90
59961;DHT22;55902;-37.980;-63.602;2023-07-02T08:44:53;12.00;99.90
59961;DHT22;55902;-37.980;-63.602;2023-07-02T08:47:20;12.00;99.90
59961;DHT22;55902;-37.980;-63.602;2023-07-02T08:49:49;12.10;99.90
59961;DHT22;55902;-37.980;-63.602;2023-07-02T08:52:16;12.10;99.90
59961;DHT22;55902;-37.980;-63.602;2023-07-02T08:54:43;12.10;99.90
59961;DHT22;55902;-37.980;-63.602;2023-07-02T08:57:10;12.10;99.90
59961;DHT22;55902;-37.980;-63.602;2023-07-02T08:59:37;12.10;99.90
59961;DHT22;55902;-37.980;-63.602;2023-07-02T09:02:04;12.10;99.90
59961;DHT22;55902;-37.980;-63.602;2023-07-02T09:04:31;12.10;99.90
59961;DHT22;55902;-37.980;-63.602;2023-07-02T09:07:05;12.10;99.90
59961;DHT22;55902;-37.980;-63.602;2023-07-02T09:09:33;12.10;99.90
59961;DHT22;55902;-37.980;-63.602;2023-07-02T09:12:00;12.10;99.90
59961;DHT22;55902;-37.980;-63.602;2023-07-02T09:14:29;12.10;99.90
59961;DHT22;55902;-37.980;-63.602;2023-07-02T09:17:07;12.10;99.90
59961;DHT22;55902;-37.980;-63.602;2023-07-02T09:19:49;12.20;99.90
59961;DHT22;55902;-37.980;-63.602;2023-07-02T09:22:17;12.10;99.90
59961;DHT22;55902;-37.980;-63.602;2023-07-02T09:24:55;12.10;99.90
59961;DHT22;55902;-37.980;-63.602;2023-07-02T09:27:36;12.20;99.90
59961;DHT22;55902;-37.980;-63.602;2023-07-02T09:30:11;12.20;99.90
59961;DHT22;55902;-37.980;-63.602;2023-07-02T09:32:41;12.20;99.90
59961;DHT22;55902;-37.980;-63.602;2023-07-02T09:35:08;12.10;99.90
59961;DHT22;55902;-37.980;-63.602;2023-07-02T09:37:35;12.20;99.90
59961;DHT22;55902;-37.980;-63.602;2023-07-02T09:40:03;12.20;99.90
59961;DHT22;55902;-37.980;-63.602;2023-07-02T09:42:34;12.20;99.90
59961;DHT22;55902;-37.980;-63.602;2023-07-02T09:45:03;12.20;99.90
59961;DHT22;55902;-37.980;-63.602;2023-07-02T09:47:35;12.30;99.90
59961;DHT22;55902;-37.980;-63.602;2023-07-02T09:50:06;12.30;99.90
59961;DHT22;55902;-37.980;-63.602;2023-07-02T09:52:34;12.30;99.90
59961;DHT22;55902;-37.980;-63.602;2023-07-02T09:55:02;12.30;99.90
59961;DHT22;55902;-37.980;-63.602;2023-07-02T09:57:30;12.30;99.90
59961;DHT22;55902;-37.980;-63.602;2023-07-02T10:00:02;12.30;99.90
59961;DHT22;55902;-37.980;-63.602;2023-07-02T10:02:31;12.20;99.90
59961;DHT22;55902;-37.980;-63.602;2023-07-02T10:04:58;12.20;99.90
59961;DHT22;55902;-37.980;-63.602;2023-07-02T10:07:32;12.20;99.90
59961;DHT22;55902;-37.980;-63.602;2023-07-02T10:09:59;12.10;99.90
59961;DHT22;55902;-37.980;-63.602;2023-07-02T10:12:30;12.10;99.90
59961;DHT22;55902;-37.980;-63.602;2023-07-02T10:14:58;12.10;99.90
59961;DHT22;55902;-37.980;-63.602;2023-07-02T10:17:26;12.00;99.90
59961;DHT22;55902;-37.980;-63.602;2023-07-02T10:19:56;11.90;99.90
59961;DHT22;55902;-37.980;-63.602;2023-07-02T10:22:24;11.90;99.90
59961;DHT22;55902;-37.980;-63.602;2023-07-02T10:24:58;11.80;99.90
59961;DHT22;55902;-37.980;-63.602;2023-07-02T10:27:38;11.70;99.90
59961;DHT22;55902;-37.980;-63.602;2023-07-02T10:30:07;11.70;99.90
59961;DHT22;55902;-37.980;-63.602;2023-07-02T10:32:35;11.80;99.90
59961;DHT22;55902;-37.980;-63.602;2023-07-02T10:35:23;11.80;99.90
59961;DHT22;55902;-37.980;-63.602;2023-07-02T10:37:51;11.80;99.90
59961;DHT22;55902;-37.980;-63.602;2023-07-02T10:40:18;11.80;99.90
59961;DHT22;55902;-37.980;-63.602;2023-07-02T10:42:50;11.80;99.90
59961;DHT22;55902;-37.980;-63.602;2023-07-02T10:45:18;11.80;99.90
59961;DHT22;55902;-37.980;-63.602;2023-07-02T10:47:45;11.80;99.90
59961;DHT22;55902;-37.980;-63.602;2023-07-02T10:50:19;11.80;99.90
59961;DHT22;55902;-37.980;-63.602;2023-07-02T10:52:47;11.80;99.90
59961;DHT22;55902;-37.980;-63.602;2023-07-02T10:55:20;11.70;99.90
59961;DHT22;55902;-37.980;-63.602;2023-07-02T10:57:48;11.70;99.90
59961;DHT22;55902;-37.980;-63.602;2023-07-02T11:00:19;11.70;99.90
59961;DHT22;55902;-37.980;-63.602;2023-07-02T11:02:46;11.70;99.90
59961;DHT22;55902;-37.980;-63.602;2023-07-02T11:05:13;11.60;99.90
59961;DHT22;55902;-37.980;-63.602;2023-07-02T11:11:07;11.60;99.90
59961;DHT22;55902;-37.980;-63.602;2023-07-02T11:21:10;11.60;99.90
59961;DHT22;55902;-37.980;-63.602;2023-07-02T11:23:37;11.50;99.90
59961;DHT22;55902;-37.980;-63.602;2023-07-02T11:26:04;11.50;99.90
59961;DHT22;55902;-37.980;-63.602;2023-07-02T11:28:32;11.50;99.90
59961;DHT22;55902;-37.980;-63.602;2023-07-02T11:31:01;11.40;99.90
59961;DHT22;55902;-37.980;-63.602;2023-07-02T11:33:39;11.40;99.90
59961;DHT22;55902;-37.980;-63.602;2023-07-02T11:36:18;11.40;99.90
59961;DHT22;55902;-37.980;-63.602;2023-07-02T11:38:46;11.30;99.90
59961;DHT22;55902;-37.980;-63.602;2023-07-02T11:41:13;11.30;99.90
59961;DHT22;55902;-37.980;-63.602;2023-07-02T11:43:40;11.30;99.90
59961;DHT22;55902;-37.980;-63.602;2023-07-02T11:46:07;11.30;99.90
59961;DHT22;55902;-37.980;-63.602;2023-07-02T11:48:34;11.30;99.90
59961;DHT22;55902;-37.980;-63.602;2023-07-02T11:51:01;11.30;99.90
59961;DHT22;55902;-37.980;-63.602;2023-07-02T11:53:28;11.30;99.90
59961;DHT22;55902;-37.980;-63.602;2023-07-02T11:55:55;11.30;99.90
59961;DHT22;55902;-37.980;-63.602;2023-07-02T11:58:22;11.30;99.90
59961;DHT22;55902;-37.980;-63.602;2023-07-02T12:00:49;11.30;99.90
59961;DHT22;55902;-37.980;-63.602;2023-07-02T12:03:16;11.30;99.90
59961;DHT22;55902;-37.980;-63.602;2023-07-02T12:05:43;11.30;99.90
59961;DHT22;55902;-37.980;-63.602;2023-07-02T12:08:10;11.30;99.90
59961;DHT22;55902;-37.980;-63.602;2023-07-02T12:10:37;11.30;99.90
59961;DHT22;55902;-37.980;-63.602;2023-07-02T12:13:04;11.30;99.90
59961;DHT22;55902;-37.980;-63.602;2023-07-02T12:15:31;11.30;99.90
59961;DHT22;55902;-37.980;-63.602;2023-07-02T12:17:58;11.30;99.90
59961;DHT22;55902;-37.980;-63.602;2023-07-02T12:20:25;11.30;99.90
59961;DHT22;55902;-37.980;-63.602;2023-07-02T12:22:52;11.20;99.90
59961;DHT22;55902;-37.980;-63.602;2023-07-02T12:25:19;11.20;99.90
59961;DHT22;55902;-37.980;-63.602;2023-07-02T12:27:46;11.20;99.90
59961;DHT22;55902;-37.980;-63.602;2023-07-02T12:30:13;11.20;99.90
59961;DHT22;55902;-37.980;-63.602;2023-07-02T12:42:50;11.40;99.90
59961;DHT22;55902;-37.980;-63.602;2023-07-02T12:45:17;11.40;99.90
59961;DHT22;55902;-37.980;-63.602;2023-07-02T12:47:44;11.50;99.90
59961;DHT22;55902;-37.980;-63.602;2023-07-02T12:50:11;11.60;99.90
59961;DHT22;55902;-37.980;-63.602;2023-07-02T12:52:38;11.70;99.90
59961;DHT22;55902;-37.980;-63.602;2023-07-02T12:55:06;11.80;99.90
59961;DHT22;55902;-37.980;-63.602;2023-07-02T12:57:33;11.80;99.90
59961;DHT22;55902;-37.980;-63.602;2023-07-02T13:00:01;11.90;99.90
59961;DHT22;55902;-37.980;-63.602;2023-07-02T13:02:28;11.90;99.90
59961;DHT22;55902;-37.980;-63.602;2023-07-02T13:04:55;12.00;99.90
59961;DHT22;55902;-37.980;-63.602;2023-07-02T13:07:22;12.20;99.90
59961;DHT22;55902;-37.980;-63.602;2023-07-02T13:09:50;12.30;99.90
59961;DHT22;55902;-37.980;-63.602;2023-07-02T13:12:17;12.70;99.90
59961;DHT22;55902;-37.980;-63.602;2023-07-02T13:14:44;13.10;99.90
59961;DHT22;55902;-37.980;-63.602;2023-07-02T13:17:11;13.50;99.90
59961;DHT22;55902;-37.980;-63.602;2023-07-02T13:19:38;13.90;99.90
59961;DHT22;55902;-37.980;-63.602;2023-07-02T13:22:05;14.30;99.90
59961;DHT22;55902;-37.980;-63.602;2023-07-02T13:24:35;14.60;99.90
59961;DHT22;55902;-37.980;-63.602;2023-07-02T13:27:09;14.90;99.90
59961;DHT22;55902;-37.980;-63.602;2023-07-02T13:29:37;15.10;99.90
59961;DHT22;55902;-37.980;-63.602;2023-07-02T13:32:05;15.40;99.90
59961;DHT22;55902;-37.980;-63.602;2023-07-02T13:34:32;15.60;99.90
59961;DHT22;55902;-37.980;-63.602;2023-07-02T13:36:59;15.80;99.90
59961;DHT22;55902;-37.980;-63.602;2023-07-02T13:39:29;15.80;99.90
59961;DHT22;55902;-37.980;-63.602;2023-07-02T13:41:57;16.00;99.90
59961;DHT22;55902;-37.980;-63.602;2023-07-02T13:44:24;16.30;99.90
59961;DHT22;55902;-37.980;-63.602;2023-07-02T13:46:51;16.40;99.90
59961;DHT22;55902;-37.980;-63.602;2023-07-02T13:49:19;16.50;99.90
59961;DHT22;55902;-37.980;-63.602;2023-07-02T13:51:47;16.50;99.90
59961;DHT22;55902;-37.980;-63.602;2023-07-02T13:54:16;16.60;99.90
59961;DHT22;55902;-37.980;-63.602;2023-07-02T13:56:46;16.60;99.90
59961;DHT22;55902;-37.980;-63.602;2023-07-02T13:59:14;16.70;99.90
59961;DHT22;55902;-37.980;-63.602;2023-07-02T14:05:04;17.20;99.90
59961;DHT22;55902;-37.980;-63.602;2023-07-02T14:07:31;17.20;99.90
59961;DHT22;55902;-37.980;-63.602;2023-07-02T14:09:58;17.30;99.90
59961;DHT22;55902;-37.980;-63.602;2023-07-02T14:12:25;17.30;99.90
59961;DHT22;55902;-37.980;-63.602;2023-07-02T14:14:52;17.30;99.90
59961;DHT22;55902;-37.980;-63.602;2023-07-02T14:17:19;17.50;99.90
59961;DHT22;55902;-37.980;-63.602;2023-07-02T14:19:46;17.70;99.90
59961;DHT22;55902;-37.980;-63.602;2023-07-02T14:22:12;17.80;99.90
59961;DHT22;55902;-37.980;-63.602;2023-07-02T14:24:39;17.80;99.90
59961;DHT22;55902;-37.980;-63.602;2023-07-02T14:27:06;17.90;99.90
59961;DHT22;55902;-37.980;-63.602;2023-07-02T14:29:34;18.10;99.90
59961;DHT22;55902;-37.980;-63.602;2023-07-02T14:32:01;18.30;99.90
59961;DHT22;55902;-37.980;-63.602;2023-07-02T14:34:28;18.40;99.90
59961;DHT22;55902;-37.980;-63.602;2023-07-02T14:36:56;18.60;99.90
59961;DHT22;55902;-37.980;-63.602;2023-07-02T14:39:23;18.50;99.90
59961;DHT22;55902;-37.980;-63.602;2023-07-02T14:41:51;18.40;99.90
59961;DHT22;55902;-37.980;-63.602;2023-07-02T14:44:18;18.40;99.90
59961;DHT22;55902;-37.980;-63.602;2023-07-02T14:46:45;18.50;99.90
59961;DHT22;55902;-37.980;-63.602;2023-07-02T14:49:12;18.70;99.90
59961;DHT22;55902;-37.980;-63.602;2023-07-02T14:51:39;18.80;99.90
59961;DHT22;55902;-37.980;-63.602;2023-07-02T14:54:06;18.90;99.90
59961;DHT22;55902;-37.980;-63.602;2023-07-02T14:56:34;19.10;99.90
59961;DHT22;55902;-37.980;-63.602;2023-07-02T14:59:04;19.40;99.90
59961;DHT22;55902;-37.980;-63.602;2023-07-02T15:01:33;19.80;99.90
59961;DHT22;55902;-37.980;-63.602;2023-07-02T15:04:00;20.00;99.90
59961;DHT22;55902;-37.980;-63.602;2023-07-02T15:06:27;20.10;99.90
59961;DHT22;55902;-37.980;-63.602;2023-07-02T15:08:54;20.20;99.90
59961;DHT22;55902;-37.980;-63.602;2023-07-02T15:11:21;20.50;99.90
59961;DHT22;55902;-37.980;-63.602;2023-07-02T15:13:48;20.50;99.90
59961;DHT22;55902;-37.980;-63.602;2023-07-02T15:19:37;20.70;99.90
59961;DHT22;55902;-37.980;-63.602;2023-07-02T15:36:48;21.70;99.90
59961;DHT22;55902;-37.980;-63.602;2023-07-02T15:39:16;22.10;99.90
59961;DHT22;55902;-37.980;-63.602;2023-07-02T15:41:49;22.10;99.40
59961;DHT22;55902;-37.980;-63.602;2023-07-02T15:44:16;22.20;99.40
59961;DHT22;55902;-37.980;-63.602;2023-07-02T15:46:43;22.30;99.50
59961;DHT22;55902;-37.980;-63.602;2023-07-02T15:49:12;22.60;99.50
59961;DHT22;55902;-37.980;-63.602;2023-07-02T15:51:40;22.60;98.90
59961;DHT22;55902;-37.980;-63.602;2023-07-02T15:54:09;22.70;98.50
59961;DHT22;55902;-37.980;-63.602;2023-07-02T15:56:36;22.80;98.40
59961;DHT22;55902;-37.980;-63.602;2023-07-02T15:59:03;22.90;98.70
59961;DHT22;55902;-37.980;-63.602;2023-07-02T16:01:33;23.00;98.30
59961;DHT22;55902;-37.980;-63.602;2023-07-02T16:04:01;23.10;98.30
59961;DHT22;55902;-37.980;-63.602;2023-07-02T16:06:30;23.30;98.60
59961;DHT22;55902;-37.980;-63.602;2023-07-02T16:09:01;23.40;98.00
59961;DHT22;55902;-37.980;-63.602;2023-07-02T16:11:28;23.70;97.90